Startpagina
METAR-TAF:

METAR-TAF

Vliegvelden :

Skelton Airport

Eureka, Alaska, Verenigde Staten

breedte: 61-56N, lengte: 147-10W, hoogte: 1002 m

Actueel weer

Dit bericht is 13 minuten geleden gemaakt, om 18:56 UTC
Wind 6 kt uit het noordnoordwesten
Temperatuur -26°C
Vochtigheid 76%
Druk 985 hPa
Zicht: 14.5 km
Geheel bewolkt op 3800 ft
lichte sneeuw

METAR: PAZK 261856Z AUTO 33006KT 9SM -SN OVC038 M26/M29 A2909 RMK AO2 SLP974 P0000 T12611289 FZRANO

Tijdstip: 10:09 (19:09 UTC)


TAF: ontbreekt

Waarnemingen en weersverwachtingen van meer dan 4000 vliegvelden (METAR en TAF).

De beschikbare stations zijn de gele en rode punten op de kaart.

Ga met uw muis naar het station om de naam te zien.

Klik dan om waarnemingen en weersverwachtingen te zien.

kaart wijzigen: klik op de groene knoppen met een zwart kruis om in te zoomen, op de groene knop met een streepje om uit te zoomen of op de groene pijlen voor aangrenzende kaarten.


METAR-TAF: